sensor_id;sensor_type;location;lat;lon;timestamp;pressure;altitude;pressure_sealevel;temperature
76895;BMP280;65855;42.030;13.078;2022-12-24T00:02:18;93829.41;;;4.87
76895;BMP280;65855;42.030;13.078;2022-12-24T00:04:44;93838.63;;;4.87
76895;BMP280;65855;42.030;13.078;2022-12-24T00:07:10;93824.72;;;4.65
76895;BMP280;65855;42.030;13.078;2022-12-24T00:09:35;93826.06;;;4.51
76895;BMP280;65855;42.030;13.078;2022-12-24T00:12:01;93827.69;;;4.41
76895;BMP280;65855;42.030;13.078;2022-12-24T00:14:26;93827.31;;;4.28
76895;BMP280;65855;42.030;13.078;2022-12-24T00:16:52;93817.16;;;4.13
76895;BMP280;65855;42.030;13.078;2022-12-24T00:19:17;93809.69;;;4.13
76895;BMP280;65855;42.030;13.078;2022-12-24T00:21:43;93804.59;;;4.50
76895;BMP280;65855;42.030;13.078;2022-12-24T00:24:08;93808.13;;;4.54
76895;BMP280;65855;42.030;13.078;2022-12-24T00:26:34;93803.84;;;4.29
76895;BMP280;65855;42.030;13.078;2022-12-24T00:29:00;93804.59;;;4.29
76895;BMP280;65855;42.030;13.078;2022-12-24T00:31:25;93801.31;;;4.50
76895;BMP280;65855;42.030;13.078;2022-12-24T00:33:51;93792.13;;;4.50
76895;BMP280;65855;42.030;13.078;2022-12-24T00:36:17;93789.09;;;4.48
76895;BMP280;65855;42.030;13.078;2022-12-24T00:38:44;93799.00;;;4.43
76895;BMP280;65855;42.030;13.078;2022-12-24T00:41:10;93791.34;;;4.76
76895;BMP280;65855;42.030;13.078;2022-12-24T00:44:04;93775.19;;;5.19
76895;BMP280;65855;42.030;13.078;2022-12-24T00:46:31;93776.50;;;5.67
76895;BMP280;65855;42.030;13.078;2022-12-24T00:48:58;93772.16;;;5.93
76895;BMP280;65855;42.030;13.078;2022-12-24T00:51:24;93779.53;;;5.69
76895;BMP280;65855;42.030;13.078;2022-12-24T00:53:50;93775.66;;;5.51
76895;BMP280;65855;42.030;13.078;2022-12-24T00:56:16;93782.03;;;5.28
76895;BMP280;65855;42.030;13.078;2022-12-24T00:58:42;93780.06;;;4.99
76895;BMP280;65855;42.030;13.078;2022-12-24T01:01:07;93788.84;;;5.06
76895;BMP280;65855;42.030;13.078;2022-12-24T01:03:33;93797.09;;;4.76
76895;BMP280;65855;42.030;13.078;2022-12-24T01:06:00;93803.41;;;4.83
76895;BMP280;65855;42.030;13.078;2022-12-24T01:08:26;93814.72;;;4.65
76895;BMP280;65855;42.030;13.078;2022-12-24T01:10:51;93816.41;;;4.33
76895;BMP280;65855;42.030;13.078;2022-12-24T01:13:17;93825.22;;;4.20
76895;BMP280;65855;42.030;13.078;2022-12-24T01:15:42;93824.84;;;4.11
76895;BMP280;65855;42.030;13.078;2022-12-24T01:18:07;93837.38;;;3.95
76895;BMP280;65855;42.030;13.078;2022-12-24T01:20:33;93828.16;;;3.75
76895;BMP280;65855;42.030;13.078;2022-12-24T01:22:58;93824.50;;;3.45
76895;BMP280;65855;42.030;13.078;2022-12-24T01:25:24;93834.22;;;3.46
76895;BMP280;65855;42.030;13.078;2022-12-24T01:27:50;93833.97;;;3.64
76895;BMP280;65855;42.030;13.078;2022-12-24T01:30:15;93840.28;;;3.87
76895;BMP280;65855;42.030;13.078;2022-12-24T01:32:41;93837.41;;;3.79
76895;BMP280;65855;42.030;13.078;2022-12-24T01:35:06;93824.78;;;3.85
76895;BMP280;65855;42.030;13.078;2022-12-24T01:37:34;93821.53;;;3.85
76895;BMP280;65855;42.030;13.078;2022-12-24T01:39:59;93817.63;;;3.89
76895;BMP280;65855;42.030;13.078;2022-12-24T01:42:46;93825.97;;;3.99
76895;BMP280;65855;42.030;13.078;2022-12-24T01:45:41;93820.75;;;3.80
76895;BMP280;65855;42.030;13.078;2022-12-24T01:50:44;93803.00;;;3.97
76895;BMP280;65855;42.030;13.078;2022-12-24T01:53:12;93795.38;;;4.30
76895;BMP280;65855;42.030;13.078;2022-12-24T01:55:39;93789.44;;;4.87
76895;BMP280;65855;42.030;13.078;2022-12-24T01:58:06;93789.84;;;4.75
76895;BMP280;65855;42.030;13.078;2022-12-24T02:00:32;93785.84;;;4.48
76895;BMP280;65855;42.030;13.078;2022-12-24T02:02:58;93775.22;;;4.10
76895;BMP280;65855;42.030;13.078;2022-12-24T02:05:41;93775.56;;;4.70
76895;BMP280;65855;42.030;13.078;2022-12-24T02:08:09;93778.50;;;4.93
76895;BMP280;65855;42.030;13.078;2022-12-24T02:10:35;93772.47;;;5.61
76895;BMP280;65855;42.030;13.078;2022-12-24T02:13:02;93765.22;;;5.19
76895;BMP280;65855;42.030;13.078;2022-12-24T02:15:42;93763.88;;;4.76
76895;BMP280;65855;42.030;13.078;2022-12-24T02:18:40;93763.69;;;4.51
76895;BMP280;65855;42.030;13.078;2022-12-24T02:24:34;93772.84;;;3.99
76895;BMP280;65855;42.030;13.078;2022-12-24T02:32:20;93752.25;;;3.66
76895;BMP280;65855;42.030;13.078;2022-12-24T02:34:55;93750.06;;;3.48
76895;BMP280;65855;42.030;13.078;2022-12-24T02:37:36;93741.44;;;3.39
76895;BMP280;65855;42.030;13.078;2022-12-24T02:43:09;93745.84;;;3.33
76895;BMP280;65855;42.030;13.078;2022-12-24T02:45:39;93751.38;;;3.35
76895;BMP280;65855;42.030;13.078;2022-12-24T02:48:07;93754.44;;;3.41
76895;BMP280;65855;42.030;13.078;2022-12-24T02:50:34;93761.53;;;3.33
76895;BMP280;65855;42.030;13.078;2022-12-24T02:52:59;93760.19;;;3.26
76895;BMP280;65855;42.030;13.078;2022-12-24T03:12:42;93723.47;;;3.00
76895;BMP280;65855;42.030;13.078;2022-12-24T03:15:11;93725.25;;;2.84
76895;BMP280;65855;42.030;13.078;2022-12-24T03:17:38;93715.88;;;3.28
76895;BMP280;65855;42.030;13.078;2022-12-24T03:20:07;93722.50;;;3.01
76895;BMP280;65855;42.030;13.078;2022-12-24T03:22:33;93725.44;;;2.98
76895;BMP280;65855;42.030;13.078;2022-12-24T03:24:59;93726.63;;;3.12
76895;BMP280;65855;42.030;13.078;2022-12-24T03:27:26;93732.53;;;3.06
76895;BMP280;65855;42.030;13.078;2022-12-24T03:29:52;93746.94;;;2.88
76895;BMP280;65855;42.030;13.078;2022-12-24T03:32:31;93744.53;;;2.77
76895;BMP280;65855;42.030;13.078;2022-12-24T03:34:57;93747.69;;;2.72
76895;BMP280;65855;42.030;13.078;2022-12-24T03:37:23;93754.91;;;2.41
76895;BMP280;65855;42.030;13.078;2022-12-24T03:39:48;93763.53;;;2.83
76895;BMP280;65855;42.030;13.078;2022-12-24T03:42:14;93775.69;;;3.11
76895;BMP280;65855;42.030;13.078;2022-12-24T03:44:39;93775.88;;;3.42
76895;BMP280;65855;42.030;13.078;2022-12-24T03:47:05;93777.22;;;3.50
76895;BMP280;65855;42.030;13.078;2022-12-24T03:49:30;93788.22;;;3.54
76895;BMP280;65855;42.030;13.078;2022-12-24T03:51:56;93780.28;;;3.35
76895;BMP280;65855;42.030;13.078;2022-12-24T03:54:21;93775.13;;;3.42
76895;BMP280;65855;42.030;13.078;2022-12-24T03:56:46;93776.34;;;3.07
76895;BMP280;65855;42.030;13.078;2022-12-24T03:59:12;93781.72;;;3.15
76895;BMP280;65855;42.030;13.078;2022-12-24T04:01:37;93771.28;;;3.02
76895;BMP280;65855;42.030;13.078;2022-12-24T04:04:03;93777.81;;;3.03
76895;BMP280;65855;42.030;13.078;2022-12-24T04:06:28;93773.78;;;3.02
76895;BMP280;65855;42.030;13.078;2022-12-24T04:08:54;93800.38;;;3.29
76895;BMP280;65855;42.030;13.078;2022-12-24T04:11:19;93805.66;;;3.54
76895;BMP280;65855;42.030;13.078;2022-12-24T04:13:45;93810.72;;;3.75
76895;BMP280;65855;42.030;13.078;2022-12-24T04:16:13;93819.44;;;3.56
76895;BMP280;65855;42.030;13.078;2022-12-24T04:18:38;93818.78;;;3.65
76895;BMP280;65855;42.030;13.078;2022-12-24T04:21:05;93829.50;;;3.29
76895;BMP280;65855;42.030;13.078;2022-12-24T04:23:32;93831.31;;;3.17
76895;BMP280;65855;42.030;13.078;2022-12-24T04:25:59;93836.28;;;3.33
76895;BMP280;65855;42.030;13.078;2022-12-24T04:28:24;93844.44;;;3.29
76895;BMP280;65855;42.030;13.078;2022-12-24T04:30:50;93841.56;;;3.36
76895;BMP280;65855;42.030;13.078;2022-12-24T04:33:15;93841.09;;;3.56
76895;BMP280;65855;42.030;13.078;2022-12-24T04:35:41;93831.09;;;3.72
76895;BMP280;65855;42.030;13.078;2022-12-24T04:38:08;93827.69;;;3.24
76895;BMP280;65855;42.030;13.078;2022-12-24T04:40:33;93807.81;;;3.83
76895;BMP280;65855;42.030;13.078;2022-12-24T04:42:59;93801.72;;;3.95
76895;BMP280;65855;42.030;13.078;2022-12-24T04:45:24;93799.13;;;4.06
76895;BMP280;65855;42.030;13.078;2022-12-24T04:47:50;93793.38;;;4.27
76895;BMP280;65855;42.030;13.078;2022-12-24T04:50:15;93785.03;;;4.42
76895;BMP280;65855;42.030;13.078;2022-12-24T04:52:41;93785.97;;;4.62
76895;BMP280;65855;42.030;13.078;2022-12-24T04:55:06;93788.72;;;4.61
76895;BMP280;65855;42.030;13.078;2022-12-24T04:57:33;93784.66;;;4.55
76895;BMP280;65855;42.030;13.078;2022-12-24T05:00:00;93782.88;;;4.77
76895;BMP280;65855;42.030;13.078;2022-12-24T05:02:26;93786.56;;;5.36
76895;BMP280;65855;42.030;13.078;2022-12-24T05:04:51;93775.53;;;4.39
76895;BMP280;65855;42.030;13.078;2022-12-24T05:07:17;93777.78;;;4.67
76895;BMP280;65855;42.030;13.078;2022-12-24T05:09:42;93773.28;;;5.30
76895;BMP280;65855;42.030;13.078;2022-12-24T05:12:08;93767.25;;;5.26
76895;BMP280;65855;42.030;13.078;2022-12-24T05:14:33;93782.19;;;4.86
76895;BMP280;65855;42.030;13.078;2022-12-24T05:16:59;93801.81;;;4.73
76895;BMP280;65855;42.030;13.078;2022-12-24T05:19:24;93791.59;;;4.48
76895;BMP280;65855;42.030;13.078;2022-12-24T05:21:50;93805.47;;;4.39
76895;BMP280;65855;42.030;13.078;2022-12-24T05:24:35;93812.09;;;4.08
76895;BMP280;65855;42.030;13.078;2022-12-24T05:27:19;93833.47;;;3.99
76895;BMP280;65855;42.030;13.078;2022-12-24T05:29:45;93827.25;;;3.81
76895;BMP280;65855;42.030;13.078;2022-12-24T05:32:10;93837.59;;;3.73
76895;BMP280;65855;42.030;13.078;2022-12-24T05:34:36;93850.94;;;3.83
76895;BMP280;65855;42.030;13.078;2022-12-24T05:37:01;93851.38;;;3.43
76895;BMP280;65855;42.030;13.078;2022-12-24T05:39:26;93861.50;;;3.36
76895;BMP280;65855;42.030;13.078;2022-12-24T05:41:52;93854.72;;;3.16
76895;BMP280;65855;42.030;13.078;2022-12-24T05:44:17;93846.41;;;3.11
76895;BMP280;65855;42.030;13.078;2022-12-24T05:46:43;93838.47;;;2.97
76895;BMP280;65855;42.030;13.078;2022-12-24T05:49:08;93823.75;;;2.96
76895;BMP280;65855;42.030;13.078;2022-12-24T05:51:34;93834.16;;;2.77
76895;BMP280;65855;42.030;13.078;2022-12-24T05:53:59;93835.66;;;2.94
76895;BMP280;65855;42.030;13.078;2022-12-24T05:56:25;93826.63;;;3.36
76895;BMP280;65855;42.030;13.078;2022-12-24T05:58:51;93829.78;;;3.48
76895;BMP280;65855;42.030;13.078;2022-12-24T06:01:18;93824.94;;;3.79
76895;BMP280;65855;42.030;13.078;2022-12-24T06:03:44;93826.69;;;3.41
76895;BMP280;65855;42.030;13.078;2022-12-24T06:06:12;93834.19;;;3.41
76895;BMP280;65855;42.030;13.078;2022-12-24T06:08:39;93828.72;;;3.44
76895;BMP280;65855;42.030;13.078;2022-12-24T06:11:07;93831.22;;;3.44
76895;BMP280;65855;42.030;13.078;2022-12-24T06:13:33;93825.13;;;3.35
76895;BMP280;65855;42.030;13.078;2022-12-24T06:16:00;93823.13;;;3.21
76895;BMP280;65855;42.030;13.078;2022-12-24T06:18:28;93828.22;;;3.10
76895;BMP280;65855;42.030;13.078;2022-12-24T06:20:55;93807.97;;;2.90
76895;BMP280;65855;42.030;13.078;2022-12-24T06:23:22;93821.47;;;3.27
76895;BMP280;65855;42.030;13.078;2022-12-24T06:25:49;93811.81;;;3.14
76895;BMP280;65855;42.030;13.078;2022-12-24T06:28:15;93818.66;;;2.75
76895;BMP280;65855;42.030;13.078;2022-12-24T06:30:44;93835.81;;;2.87
76895;BMP280;65855;42.030;13.078;2022-12-24T06:33:10;93819.38;;;2.87
76895;BMP280;65855;42.030;13.078;2022-12-24T06:35:35;93819.16;;;2.61
76895;BMP280;65855;42.030;13.078;2022-12-24T06:38:01;93818.72;;;2.63
76895;BMP280;65855;42.030;13.078;2022-12-24T06:40:26;93805.59;;;2.52
76895;BMP280;65855;42.030;13.078;2022-12-24T06:42:52;93814.78;;;2.51
76895;BMP280;65855;42.030;13.078;2022-12-24T06:45:17;93814.38;;;2.87
76895;BMP280;65855;42.030;13.078;2022-12-24T06:47:43;93808.81;;;2.96
76895;BMP280;65855;42.030;13.078;2022-12-24T06:50:09;93806.97;;;2.59
76895;BMP280;65855;42.030;13.078;2022-12-24T06:52:34;93798.47;;;3.04
76895;BMP280;65855;42.030;13.078;2022-12-24T06:55:00;93799.28;;;3.25
76895;BMP280;65855;42.030;13.078;2022-12-24T06:57:26;93799.59;;;3.12
76895;BMP280;65855;42.030;13.078;2022-12-24T06:59:51;93821.63;;;3.36
76895;BMP280;65855;42.030;13.078;2022-12-24T07:02:17;93820.72;;;3.42
76895;BMP280;65855;42.030;13.078;2022-12-24T07:04:42;93824.53;;;3.29
76895;BMP280;65855;42.030;13.078;2022-12-24T07:07:07;93834.78;;;3.32
76895;BMP280;65855;42.030;13.078;2022-12-24T07:09:33;93839.50;;;3.34
76895;BMP280;65855;42.030;13.078;2022-12-24T07:11:58;93849.88;;;3.26
76895;BMP280;65855;42.030;13.078;2022-12-24T07:14:24;93851.66;;;3.14
76895;BMP280;65855;42.030;13.078;2022-12-24T07:16:50;93855.56;;;3.75
76895;BMP280;65855;42.030;13.078;2022-12-24T07:19:17;93853.28;;;3.89
76895;BMP280;65855;42.030;13.078;2022-12-24T07:21:42;93850.91;;;3.62
76895;BMP280;65855;42.030;13.078;2022-12-24T07:24:08;93842.28;;;3.69
76895;BMP280;65855;42.030;13.078;2022-12-24T07:26:33;93853.41;;;3.62
76895;BMP280;65855;42.030;13.078;2022-12-24T07:28:59;93844.53;;;3.71
76895;BMP280;65855;42.030;13.078;2022-12-24T07:31:24;93847.19;;;4.02
76895;BMP280;65855;42.030;13.078;2022-12-24T07:33:50;93831.91;;;4.14
76895;BMP280;65855;42.030;13.078;2022-12-24T07:36:20;93839.72;;;4.23
76895;BMP280;65855;42.030;13.078;2022-12-24T07:38:46;93826.84;;;4.09
76895;BMP280;65855;42.030;13.078;2022-12-24T07:41:12;93841.50;;;4.48
76895;BMP280;65855;42.030;13.078;2022-12-24T07:43:38;93840.44;;;4.91
76895;BMP280;65855;42.030;13.078;2022-12-24T07:46:04;93847.03;;;5.02
76895;BMP280;65855;42.030;13.078;2022-12-24T07:48:30;93845.16;;;5.50
76895;BMP280;65855;42.030;13.078;2022-12-24T07:50:57;93840.16;;;5.50
76895;BMP280;65855;42.030;13.078;2022-12-24T07:53:27;93853.63;;;5.75
76895;BMP280;65855;42.030;13.078;2022-12-24T07:55:53;93852.66;;;5.80
76895;BMP280;65855;42.030;13.078;2022-12-24T07:58:19;93842.66;;;5.80
76895;BMP280;65855;42.030;13.078;2022-12-24T08:00:44;93840.28;;;6.05
76895;BMP280;65855;42.030;13.078;2022-12-24T08:03:19;93836.44;;;6.43
76895;BMP280;65855;42.030;13.078;2022-12-24T08:05:45;93834.78;;;6.88
76895;BMP280;65855;42.030;13.078;2022-12-24T08:08:11;93846.06;;;6.90
76895;BMP280;65855;42.030;13.078;2022-12-24T08:10:41;93848.81;;;6.98
76895;BMP280;65855;42.030;13.078;2022-12-24T08:13:07;93844.53;;;6.79
76895;BMP280;65855;42.030;13.078;2022-12-24T08:15:33;93856.13;;;7.19
76895;BMP280;65855;42.030;13.078;2022-12-24T08:17:58;93849.84;;;7.81
76895;BMP280;65855;42.030;13.078;2022-12-24T08:20:24;93851.75;;;8.33
76895;BMP280;65855;42.030;13.078;2022-12-24T08:22:49;93845.75;;;8.81
76895;BMP280;65855;42.030;13.078;2022-12-24T08:25:15;93844.00;;;9.19
76895;BMP280;65855;42.030;13.078;2022-12-24T08:27:40;93840.88;;;9.65
76895;BMP280;65855;42.030;13.078;2022-12-24T08:30:07;93839.63;;;10.18
76895;BMP280;65855;42.030;13.078;2022-12-24T08:32:32;93849.88;;;9.71
76895;BMP280;65855;42.030;13.078;2022-12-24T08:34:58;93843.69;;;10.14
76895;BMP280;65855;42.030;13.078;2022-12-24T08:37:23;93854.69;;;10.87
76895;BMP280;65855;42.030;13.078;2022-12-24T08:39:49;93851.69;;;11.03
76895;BMP280;65855;42.030;13.078;2022-12-24T08:42:14;93850.66;;;11.04
76895;BMP280;65855;42.030;13.078;2022-12-24T08:44:40;93849.91;;;11.22
76895;BMP280;65855;42.030;13.078;2022-12-24T08:47:05;93859.63;;;11.52
76895;BMP280;65855;42.030;13.078;2022-12-24T08:49:31;93861.16;;;11.66
76895;BMP280;65855;42.030;13.078;2022-12-24T08:51:56;93857.50;;;11.58
76895;BMP280;65855;42.030;13.078;2022-12-24T08:54:22;93863.47;;;11.94
76895;BMP280;65855;42.030;13.078;2022-12-24T08:56:49;93861.25;;;12.19
76895;BMP280;65855;42.030;13.078;2022-12-24T08:59:14;93853.69;;;12.58
76895;BMP280;65855;42.030;13.078;2022-12-24T09:01:40;93867.56;;;13.22
76895;BMP280;65855;42.030;13.078;2022-12-24T09:04:05;93858.69;;;13.46
76895;BMP280;65855;42.030;13.078;2022-12-24T09:06:31;93848.75;;;14.69
76895;BMP280;65855;42.030;13.078;2022-12-24T09:08:57;93843.34;;;13.08
76895;BMP280;65855;42.030;13.078;2022-12-24T09:11:22;93865.31;;;13.55
76895;BMP280;65855;42.030;13.078;2022-12-24T09:13:48;93851.69;;;14.54
76895;BMP280;65855;42.030;13.078;2022-12-24T09:16:13;93860.88;;;14.97
76895;BMP280;65855;42.030;13.078;2022-12-24T09:18:39;93858.47;;;14.29
76895;BMP280;65855;42.030;13.078;2022-12-24T09:21:08;93857.56;;;14.71
76895;BMP280;65855;42.030;13.078;2022-12-24T09:23:35;93882.66;;;13.83
76895;BMP280;65855;42.030;13.078;2022-12-24T09:26:04;93868.44;;;15.27
76895;BMP280;65855;42.030;13.078;2022-12-24T09:28:29;93875.28;;;13.73
76895;BMP280;65855;42.030;13.078;2022-12-24T09:31:00;93867.78;;;14.12
76895;BMP280;65855;42.030;13.078;2022-12-24T09:33:27;93870.06;;;15.23
76895;BMP280;65855;42.030;13.078;2022-12-24T09:35:53;93875.28;;;15.85
76895;BMP280;65855;42.030;13.078;2022-12-24T09:38:19;93872.09;;;16.29
76895;BMP280;65855;42.030;13.078;2022-12-24T09:40:46;93875.19;;;16.80
76895;BMP280;65855;42.030;13.078;2022-12-24T09:43:18;93882.84;;;17.08
76895;BMP280;65855;42.030;13.078;2022-12-24T09:48:21;93882.44;;;16.98
76895;BMP280;65855;42.030;13.078;2022-12-24T09:50:49;93883.00;;;17.52
76895;BMP280;65855;42.030;13.078;2022-12-24T09:53:33;93869.97;;;18.17
76895;BMP280;65855;42.030;13.078;2022-12-24T09:56:05;93862.13;;;15.08
76895;BMP280;65855;42.030;13.078;2022-12-24T09:58:37;93864.66;;;14.53
76895;BMP280;65855;42.030;13.078;2022-12-24T10:01:04;93859.03;;;15.36
76895;BMP280;65855;42.030;13.078;2022-12-24T10:03:30;93856.13;;;14.41
76895;BMP280;65855;42.030;13.078;2022-12-24T10:20:30;93851.66;;;15.92
76895;BMP280;65855;42.030;13.078;2022-12-24T10:26:05;93849.00;;;16.42
76895;BMP280;65855;42.030;13.078;2022-12-24T10:28:56;93857.78;;;17.10
76895;BMP280;65855;42.030;13.078;2022-12-24T10:31:25;93860.97;;;17.47
76895;BMP280;65855;42.030;13.078;2022-12-24T10:34:00;93869.59;;;17.14
76895;BMP280;65855;42.030;13.078;2022-12-24T10:36:29;93865.44;;;17.10
76895;BMP280;65855;42.030;13.078;2022-12-24T10:38:55;93862.53;;;17.20
76895;BMP280;65855;42.030;13.078;2022-12-24T10:41:22;93858.03;;;16.88
76895;BMP280;65855;42.030;13.078;2022-12-24T10:43:49;93857.44;;;17.20
76895;BMP280;65855;42.030;13.078;2022-12-24T10:46:22;93855.59;;;17.00
76895;BMP280;65855;42.030;13.078;2022-12-24T10:48:55;93855.28;;;16.73
76895;BMP280;65855;42.030;13.078;2022-12-24T10:54:13;93849.75;;;17.00
76895;BMP280;65855;42.030;13.078;2022-12-24T10:56:45;93858.38;;;17.56
76895;BMP280;65855;42.030;13.078;2022-12-24T11:01:51;93858.16;;;18.91
76895;BMP280;65855;42.030;13.078;2022-12-24T11:04:20;93853.66;;;18.76
76895;BMP280;65855;42.030;13.078;2022-12-24T11:07:04;93848.34;;;19.17
76895;BMP280;65855;42.030;13.078;2022-12-24T11:09:31;93841.47;;;19.32
76895;BMP280;65855;42.030;13.078;2022-12-24T11:11:59;93836.84;;;19.11
76895;BMP280;65855;42.030;13.078;2022-12-24T11:14:33;93842.81;;;18.79
76895;BMP280;65855;42.030;13.078;2022-12-24T11:17:00;93838.47;;;20.23
76895;BMP280;65855;42.030;13.078;2022-12-24T11:19:34;93845.69;;;20.48
76895;BMP280;65855;42.030;13.078;2022-12-24T11:22:09;93832.84;;;21.61
76895;BMP280;65855;42.030;13.078;2022-12-24T11:24:42;93835.44;;;21.65
76895;BMP280;65855;42.030;13.078;2022-12-24T11:27:42;93837.16;;;21.76
76895;BMP280;65855;42.030;13.078;2022-12-24T11:32:43;93836.88;;;19.76
76895;BMP280;65855;42.030;13.078;2022-12-24T11:35:16;93838.16;;;20.85
76895;BMP280;65855;42.030;13.078;2022-12-24T11:37:42;93827.91;;;21.19
76895;BMP280;65855;42.030;13.078;2022-12-24T11:40:19;93821.13;;;21.82
76895;BMP280;65855;42.030;13.078;2022-12-24T11:42:46;93824.00;;;22.40
76895;BMP280;65855;42.030;13.078;2022-12-24T11:45:21;93810.59;;;22.97
76895;BMP280;65855;42.030;13.078;2022-12-24T11:47:47;93817.72;;;23.62
76895;BMP280;65855;42.030;13.078;2022-12-24T11:50:34;93826.84;;;23.88
76895;BMP280;65855;42.030;13.078;2022-12-24T11:55:41;93828.03;;;23.97
76895;BMP280;65855;42.030;13.078;2022-12-24T11:58:34;93825.75;;;24.67
76895;BMP280;65855;42.030;13.078;2022-12-24T12:03:46;93823.13;;;23.53
76895;BMP280;65855;42.030;13.078;2022-12-24T12:06:38;93823.78;;;22.48
76895;BMP280;65855;42.030;13.078;2022-12-24T12:09:13;93824.34;;;21.98
76895;BMP280;65855;42.030;13.078;2022-12-24T12:11:43;93824.22;;;21.91
76895;BMP280;65855;42.030;13.078;2022-12-24T12:14:19;93818.31;;;21.68
76895;BMP280;65855;42.030;13.078;2022-12-24T12:17:00;93821.91;;;21.86
76895;BMP280;65855;42.030;13.078;2022-12-24T12:19:46;93820.16;;;22.09
76895;BMP280;65855;42.030;13.078;2022-12-24T12:25:18;93817.06;;;21.25
76895;BMP280;65855;42.030;13.078;2022-12-24T12:27:48;93815.88;;;21.75
76895;BMP280;65855;42.030;13.078;2022-12-24T12:30:17;93821.38;;;22.15
76895;BMP280;65855;42.030;13.078;2022-12-24T12:32:59;93809.53;;;22.76
76895;BMP280;65855;42.030;13.078;2022-12-24T12:35:32;93815.56;;;22.84
76895;BMP280;65855;42.030;13.078;2022-12-24T12:38:04;93801.41;;;23.25
76895;BMP280;65855;42.030;13.078;2022-12-24T12:48:45;93811.69;;;23.22
76895;BMP280;65855;42.030;13.078;2022-12-24T12:56:40;93821.38;;;23.06
76895;BMP280;65855;42.030;13.078;2022-12-24T12:59:11;93823.13;;;22.99
76895;BMP280;65855;42.030;13.078;2022-12-24T13:01:41;93816.84;;;23.25
76895;BMP280;65855;42.030;13.078;2022-12-24T13:07:03;93812.72;;;23.43
76895;BMP280;65855;42.030;13.078;2022-12-24T13:16:13;93809.53;;;21.69
76895;BMP280;65855;42.030;13.078;2022-12-24T13:19:06;93817.47;;;18.63
76895;BMP280;65855;42.030;13.078;2022-12-24T13:21:33;93820.41;;;18.18
76895;BMP280;65855;42.030;13.078;2022-12-24T13:24:11;93825.22;;;20.06
76895;BMP280;65855;42.030;13.078;2022-12-24T13:26:39;93821.44;;;20.15
76895;BMP280;65855;42.030;13.078;2022-12-24T13:29:38;93822.34;;;19.80
76895;BMP280;65855;42.030;13.078;2022-12-24T13:34:53;93813.59;;;20.08
76895;BMP280;65855;42.030;13.078;2022-12-24T13:37:21;93833.59;;;19.37
76895;BMP280;65855;42.030;13.078;2022-12-24T13:50:52;93840.19;;;22.85
76895;BMP280;65855;42.030;13.078;2022-12-24T13:53:22;93845.31;;;21.10
76895;BMP280;65855;42.030;13.078;2022-12-24T13:56:41;93859.09;;;21.36
76895;BMP280;65855;42.030;13.078;2022-12-24T13:58:54;93858.41;;;20.90
76895;BMP280;65855;42.030;13.078;2022-12-24T14:01:31;93864.94;;;18.64
76895;BMP280;65855;42.030;13.078;2022-12-24T14:03:58;93867.44;;;17.65
76895;BMP280;65855;42.030;13.078;2022-12-24T14:06:27;93869.78;;;16.81
76895;BMP280;65855;42.030;13.078;2022-12-24T14:09:08;93872.28;;;16.08
76895;BMP280;65855;42.030;13.078;2022-12-24T14:14:40;93868.78;;;16.29
76895;BMP280;65855;42.030;13.078;2022-12-24T14:19:58;93882.00;;;14.59
76895;BMP280;65855;42.030;13.078;2022-12-24T14:22:32;93877.50;;;14.18
76895;BMP280;65855;42.030;13.078;2022-12-24T14:25:18;93886.59;;;13.76
76895;BMP280;65855;42.030;13.078;2022-12-24T14:27:51;93886.25;;;13.47
76895;BMP280;65855;42.030;13.078;2022-12-24T14:30:23;93880.69;;;13.24
76895;BMP280;65855;42.030;13.078;2022-12-24T14:32:51;93884.13;;;13.63
76895;BMP280;65855;42.030;13.078;2022-12-24T14:35:36;93879.25;;;14.09
76895;BMP280;65855;42.030;13.078;2022-12-24T14:38:10;93870.94;;;14.17
76895;BMP280;65855;42.030;13.078;2022-12-24T14:41:06;93877.41;;;12.89
76895;BMP280;65855;42.030;13.078;2022-12-24T14:43:49;93876.44;;;12.45
76895;BMP280;65855;42.030;13.078;2022-12-24T14:46:24;93877.41;;;12.62
76895;BMP280;65855;42.030;13.078;2022-12-24T14:51:25;93876.28;;;12.42
76895;BMP280;65855;42.030;13.078;2022-12-24T14:54:12;93881.47;;;12.19
76895;BMP280;65855;42.030;13.078;2022-12-24T14:56:40;93880.09;;;12.26
76895;BMP280;65855;42.030;13.078;2022-12-24T14:59:19;93876.75;;;11.86
76895;BMP280;65855;42.030;13.078;2022-12-24T15:01:45;93878.47;;;11.72
76895;BMP280;65855;42.030;13.078;2022-12-24T15:04:15;93872.75;;;11.67
76895;BMP280;65855;42.030;13.078;2022-12-24T15:06:47;93879.97;;;12.04
76895;BMP280;65855;42.030;13.078;2022-12-24T15:09:19;93879.97;;;12.04
76895;BMP280;65855;42.030;13.078;2022-12-24T15:11:47;93888.09;;;11.70
76895;BMP280;65855;42.030;13.078;2022-12-24T15:14:14;93890.97;;;11.09
76895;BMP280;65855;42.030;13.078;2022-12-24T15:16:40;93885.53;;;11.21
76895;BMP280;65855;42.030;13.078;2022-12-24T15:22:08;93881.16;;;11.26
76895;BMP280;65855;42.030;13.078;2022-12-24T15:24:42;93882.91;;;10.89
76895;BMP280;65855;42.030;13.078;2022-12-24T15:27:17;93889.84;;;10.79
76895;BMP280;65855;42.030;13.078;2022-12-24T15:29:45;93888.41;;;11.32
76895;BMP280;65855;42.030;13.078;2022-12-24T15:32:15;93898.16;;;11.21
76895;BMP280;65855;42.030;13.078;2022-12-24T15:34:44;93893.69;;;11.31
76895;BMP280;65855;42.030;13.078;2022-12-24T15:37:22;93899.09;;;11.06
76895;BMP280;65855;42.030;13.078;2022-12-24T15:39:57;93898.94;;;10.98
76895;BMP280;65855;42.030;13.078;2022-12-24T15:42:24;93907.44;;;10.84
76895;BMP280;65855;42.030;13.078;2022-12-24T15:47:29;93910.16;;;10.46
76895;BMP280;65855;42.030;13.078;2022-12-24T15:50:03;93911.06;;;10.32
76895;BMP280;65855;42.030;13.078;2022-12-24T15:52:29;93907.34;;;10.25
76895;BMP280;65855;42.030;13.078;2022-12-24T15:54:54;93928.16;;;10.35
76895;BMP280;65855;42.030;13.078;2022-12-24T15:57:25;93929.31;;;10.19
76895;BMP280;65855;42.030;13.078;2022-12-24T15:59:55;93925.41;;;10.55
76895;BMP280;65855;42.030;13.078;2022-12-24T16:02:37;93919.59;;;10.36
76895;BMP280;65855;42.030;13.078;2022-12-24T16:10:47;93933.34;;;9.92
76895;BMP280;65855;42.030;13.078;2022-12-24T16:13:23;93942.53;;;9.69
76895;BMP280;65855;42.030;13.078;2022-12-24T16:18:17;93938.19;;;9.79
76895;BMP280;65855;42.030;13.078;2022-12-24T16:20:48;93946.09;;;9.25
76895;BMP280;65855;42.030;13.078;2022-12-24T16:23:16;93951.94;;;9.59